createdAt,value
2023-02-13T00:01:21.620Z,99.90
2023-02-13T00:04:07.418Z,99.90
2023-02-13T00:06:52.960Z,99.90
2023-02-13T00:09:40.448Z,99.90
2023-02-13T00:12:26.258Z,99.90
2023-02-13T00:15:11.874Z,99.90
2023-02-13T00:17:57.548Z,99.90
2023-02-13T00:20:43.623Z,99.90
2023-02-13T00:23:31.419Z,99.90
2023-02-13T00:26:18.865Z,99.90
2023-02-13T00:29:05.974Z,99.90
2023-02-13T00:31:51.720Z,99.90
2023-02-13T00:34:37.348Z,99.90
2023-02-13T00:37:22.708Z,99.90
2023-02-13T00:40:11.821Z,99.90
2023-02-13T00:42:58.979Z,99.90
2023-02-13T00:45:44.617Z,99.90
2023-02-13T00:48:31.769Z,99.90
2023-02-13T00:51:17.513Z,99.90
2023-02-13T00:54:03.003Z,99.90
2023-02-13T00:56:48.995Z,99.90
2023-02-13T00:59:36.488Z,99.90
2023-02-13T01:02:22.409Z,99.90
2023-02-13T01:05:08.915Z,99.90
2023-02-13T01:07:55.032Z,99.90
2023-02-13T01:10:41.993Z,99.90
2023-02-13T01:13:27.691Z,99.90
2023-02-13T01:16:17.929Z,99.90
2023-02-13T01:19:04.861Z,99.90
2023-02-13T01:21:50.784Z,99.90
2023-02-13T01:24:37.882Z,99.90
2023-02-13T01:27:23.323Z,99.90
2023-02-13T01:30:13.711Z,99.90
2023-02-13T01:33:01.264Z,99.90
2023-02-13T01:35:47.213Z,99.90
2023-02-13T01:38:32.823Z,99.90
2023-02-13T01:41:18.473Z,99.90
2023-02-13T01:44:40.785Z,99.90
2023-02-13T01:47:29.520Z,99.90
2023-02-13T01:50:21.102Z,99.90
2023-02-13T01:53:10.281Z,99.90
2023-02-13T01:55:59.256Z,99.90
2023-02-13T01:58:47.311Z,99.90
2023-02-13T02:01:33.822Z,99.90
2023-02-13T02:04:22.700Z,99.90
2023-02-13T02:07:13.508Z,99.90
2023-02-13T02:10:02.741Z,99.90
2023-02-13T02:12:53.896Z,99.90
2023-02-13T02:15:43.338Z,99.90
2023-02-13T02:18:29.753Z,99.90
2023-02-13T02:21:50.739Z,99.90
2023-02-13T02:25:23.416Z,99.90
2023-02-13T02:28:27.788Z,99.90
2023-02-13T02:31:52.521Z,99.90
2023-02-13T02:34:47.461Z,99.90
2023-02-13T02:37:52.007Z,99.90
2023-02-13T02:40:51.675Z,99.90
2023-02-13T02:43:51.158Z,99.90
2023-02-13T02:47:05.081Z,99.90
2023-02-13T02:50:00.344Z,99.90
2023-02-13T02:52:57.602Z,99.90
2023-02-13T02:55:50.562Z,99.90
2023-02-13T02:59:00.659Z,99.90
2023-02-13T03:02:07.571Z,99.90
2023-02-13T03:05:16.239Z,99.90
2023-02-13T03:08:03.657Z,99.90
2023-02-13T03:11:08.066Z,99.90
2023-02-13T03:13:54.214Z,99.90
2023-02-13T03:16:58.688Z,99.90
2023-02-13T03:20:14.199Z,99.90
2023-02-13T03:23:11.110Z,99.90
2023-02-13T03:26:45.557Z,99.90
2023-02-13T03:30:02.746Z,99.90
2023-02-13T03:33:00.047Z,99.90
2023-02-13T03:36:10.936Z,99.90
2023-02-13T03:39:05.046Z,99.90
2023-02-13T03:41:56.015Z,99.90
2023-02-13T03:44:46.948Z,99.90
2023-02-13T03:47:32.516Z,99.90
2023-02-13T03:50:18.768Z,99.90
2023-02-13T03:53:09.638Z,99.90
2023-02-13T03:56:18.135Z,99.90
2023-02-13T03:59:16.240Z,99.90
2023-02-13T04:02:07.428Z,99.90
2023-02-13T04:04:54.266Z,99.90
2023-02-13T04:07:39.809Z,99.90
2023-02-13T04:10:30.875Z,99.90
2023-02-13T04:13:25.282Z,99.90
2023-02-13T04:16:15.966Z,99.90
2023-02-13T04:19:02.280Z,99.90
2023-02-13T04:21:55.912Z,99.90
2023-02-13T04:24:41.632Z,99.90
2023-02-13T04:27:28.519Z,99.90
2023-02-13T04:30:17.826Z,99.90
2023-02-13T04:33:03.569Z,99.90
2023-02-13T04:35:49.751Z,99.90
2023-02-13T04:38:35.482Z,99.90
2023-02-13T04:41:21.059Z,99.90
2023-02-13T04:44:06.738Z,99.90
2023-02-13T04:46:53.839Z,99.90
2023-02-13T04:49:40.251Z,99.90
2023-02-13T04:52:25.996Z,99.90
2023-02-13T04:55:12.067Z,99.90
2023-02-13T04:57:58.134Z,99.90
2023-02-13T05:00:44.224Z,99.90
2023-02-13T05:03:31.232Z,99.90
2023-02-13T05:06:16.755Z,99.90
2023-02-13T05:09:02.223Z,99.90
2023-02-13T05:11:50.840Z,99.90
2023-02-13T05:14:36.616Z,99.90
2023-02-13T05:17:22.557Z,99.90
2023-02-13T05:20:10.842Z,99.90
2023-02-13T05:23:14.592Z,99.90
2023-02-13T05:26:00.489Z,99.90
2023-02-13T05:29:04.313Z,99.90
2023-02-13T05:31:52.221Z,99.90
2023-02-13T05:34:37.978Z,99.90
2023-02-13T05:37:25.256Z,99.90
2023-02-13T05:40:13.330Z,99.90
2023-02-13T05:42:59.025Z,99.90
2023-02-13T05:45:44.660Z,99.90
2023-02-13T05:48:30.294Z,99.90
2023-02-13T05:51:15.971Z,99.90
2023-02-13T05:54:03.359Z,99.90
2023-02-13T05:56:48.873Z,99.90
2023-02-13T05:59:34.461Z,99.90
2023-02-13T06:02:20.350Z,99.90
2023-02-13T06:05:06.500Z,99.90
2023-02-13T06:07:52.459Z,99.90
2023-02-13T06:10:39.668Z,99.90
2023-02-13T06:13:25.526Z,99.90
2023-02-13T06:16:11.880Z,99.90
2023-02-13T06:18:57.985Z,99.90
2023-02-13T06:21:43.669Z,99.90
2023-02-13T06:24:29.400Z,99.90
2023-02-13T06:27:16.224Z,99.90
2023-02-13T06:30:02.053Z,99.90
2023-02-13T06:32:48.894Z,99.90
2023-02-13T06:35:34.769Z,99.90
2023-02-13T06:38:21.548Z,99.90
2023-02-13T06:41:07.281Z,99.90
2023-02-13T06:43:54.549Z,99.90
2023-02-13T06:46:40.433Z,99.90
2023-02-13T06:49:26.303Z,99.90
2023-02-13T06:52:12.339Z,99.90
2023-02-13T06:54:57.794Z,99.90
2023-02-13T06:57:44.084Z,99.90
2023-02-13T07:00:31.609Z,99.90
2023-02-13T07:03:17.602Z,99.90
2023-02-13T07:06:03.873Z,99.90
2023-02-13T07:08:55.153Z,99.90
2023-02-13T07:11:40.919Z,99.90
2023-02-13T07:14:26.390Z,99.90
2023-02-13T07:17:13.747Z,99.90
2023-02-13T07:19:59.430Z,99.90
2023-02-13T07:22:44.836Z,99.90
2023-02-13T07:25:30.624Z,99.90
2023-02-13T07:28:15.933Z,99.90
2023-02-13T07:31:05.652Z,99.90
2023-02-13T07:33:53.034Z,99.90
2023-02-13T07:36:38.871Z,99.90
2023-02-13T07:39:24.506Z,99.90
2023-02-13T07:42:09.908Z,99.90
2023-02-13T07:44:55.959Z,99.90
2023-02-13T07:47:41.714Z,99.90
2023-02-13T07:50:29.377Z,99.90
2023-02-13T07:53:15.115Z,99.90
2023-02-13T07:56:06.141Z,99.90
2023-02-13T07:58:51.603Z,99.90
2023-02-13T08:01:37.158Z,99.90
2023-02-13T08:04:25.327Z,99.90
2023-02-13T08:07:13.496Z,99.90
2023-02-13T08:10:17.844Z,99.90
2023-02-13T08:13:04.209Z,99.90
2023-02-13T08:15:50.142Z,99.90
2023-02-13T08:18:35.815Z,99.90
2023-02-13T08:21:21.413Z,99.90
2023-02-13T08:24:09.133Z,99.90
2023-02-13T08:26:56.188Z,99.90
2023-02-13T08:29:42.001Z,99.90
2023-02-13T08:32:28.056Z,99.90
2023-02-13T08:35:14.027Z,99.90
2023-02-13T08:38:02.966Z,99.90
2023-02-13T08:40:49.993Z,99.90
2023-02-13T08:43:35.824Z,99.90
2023-02-13T08:46:21.928Z,99.90
2023-02-13T08:49:08.110Z,99.90
2023-02-13T08:51:53.677Z,99.90
2023-02-13T08:54:39.619Z,99.90
2023-02-13T08:57:27.318Z,99.90
2023-02-13T09:00:14.712Z,99.90
2023-02-13T09:03:02.412Z,99.90
2023-02-13T09:05:48.633Z,99.90
2023-02-13T09:08:35.906Z,99.90
2023-02-13T09:11:23.375Z,99.90
2023-02-13T09:14:10.718Z,99.90
2023-02-13T09:16:56.789Z,99.90
2023-02-13T09:19:42.115Z,99.90
2023-02-13T09:22:28.714Z,99.90
2023-02-13T09:25:14.253Z,99.90
2023-02-13T09:28:00.325Z,99.90
2023-02-13T09:30:49.301Z,99.90
2023-02-13T09:33:35.568Z,99.90
2023-02-13T09:36:24.107Z,99.90
2023-02-13T09:39:10.037Z,99.90
2023-02-13T09:41:57.148Z,99.90
2023-02-13T09:44:44.868Z,99.60
2023-02-13T09:47:34.626Z,98.70
2023-02-13T09:50:24.131Z,98.10
2023-02-13T09:53:20.352Z,98.60
2023-02-13T09:56:14.570Z,98.80
2023-02-13T09:59:05.558Z,98.90
2023-02-13T10:01:55.691Z,99.30
2023-02-13T10:04:52.745Z,98.80
2023-02-13T10:07:44.854Z,97.70
2023-02-13T10:10:38.042Z,97.00
2023-02-13T10:13:36.043Z,95.90
2023-02-13T10:16:25.833Z,95.20
2023-02-13T10:19:19.306Z,93.60
2023-02-13T10:22:13.233Z,92.50
2023-02-13T10:25:04.880Z,92.60
2023-02-13T10:27:55.262Z,93.00
2023-02-13T10:30:49.153Z,94.20
2023-02-13T10:33:40.910Z,95.60
2023-02-13T10:36:29.708Z,95.40
2023-02-13T10:39:23.809Z,94.60
2023-02-13T10:42:20.516Z,93.90
2023-02-13T10:45:30.501Z,93.60
2023-02-13T10:48:30.903Z,93.90
2023-02-13T10:51:24.987Z,94.30
2023-02-13T10:54:29.220Z,94.70
2023-02-13T10:57:21.232Z,94.60
2023-02-13T11:00:16.121Z,94.10
2023-02-13T11:03:02.369Z,93.50
2023-02-13T11:05:49.232Z,93.10
2023-02-13T11:08:39.929Z,93.10
2023-02-13T11:11:34.513Z,93.40
2023-02-13T11:14:22.610Z,93.30
2023-02-13T11:17:17.611Z,92.60
2023-02-13T11:20:08.072Z,92.20
2023-02-13T11:22:53.982Z,91.10
2023-02-13T11:25:39.484Z,90.60
2023-02-13T11:28:29.385Z,90.70
2023-02-13T11:31:27.119Z,90.60
2023-02-13T11:34:26.270Z,90.80
2023-02-13T11:37:21.510Z,91.10
2023-02-13T11:40:29.454Z,88.50
2023-02-13T11:43:20.796Z,89.00
2023-02-13T11:46:16.407Z,89.10
2023-02-13T11:49:05.493Z,90.00
2023-02-13T11:51:53.243Z,90.70
2023-02-13T11:54:40.810Z,90.30
2023-02-13T11:57:30.893Z,90.10
2023-02-13T12:00:37.510Z,89.90
2023-02-13T12:03:30.983Z,89.40
2023-02-13T12:06:18.471Z,87.30
2023-02-13T12:09:04.369Z,84.80
2023-02-13T12:11:52.083Z,83.10
2023-02-13T12:14:42.820Z,81.80
2023-02-13T12:17:32.582Z,81.70
2023-02-13T12:20:20.635Z,81.90
2023-02-13T12:23:12.676Z,84.30
2023-02-13T12:26:20.110Z,85.20
2023-02-13T12:29:44.074Z,82.10
2023-02-13T12:32:45.974Z,82.20
2023-02-13T12:35:43.563Z,83.10
2023-02-13T12:38:42.826Z,82.50
2023-02-13T12:41:39.057Z,83.00
2023-02-13T12:45:00.600Z,82.30
2023-02-13T12:48:01.766Z,84.30
2023-02-13T12:50:59.257Z,84.30
2023-02-13T12:54:03.868Z,82.20
2023-02-13T12:57:06.684Z,82.30
2023-02-13T13:00:12.768Z,80.70
2023-02-13T13:03:34.703Z,83.50
2023-02-13T13:06:39.053Z,84.70
2023-02-13T13:09:41.867Z,84.80
2023-02-13T13:12:42.268Z,82.90
2023-02-13T13:15:35.312Z,84.40
2023-02-13T13:18:32.288Z,81.90
2023-02-13T13:21:27.732Z,80.70
2023-02-13T13:24:23.853Z,81.10
2023-02-13T13:27:18.668Z,82.30
2023-02-13T13:30:13.427Z,82.70
2023-02-13T13:33:03.503Z,84.00
2023-02-13T13:35:58.753Z,86.60
2023-02-13T13:38:56.209Z,87.90
2023-02-13T13:41:54.434Z,91.30
2023-02-13T13:44:53.162Z,91.90
2023-02-13T13:47:51.201Z,93.60
2023-02-13T13:50:41.775Z,94.50
2023-02-13T13:53:27.701Z,94.00
2023-02-13T13:56:13.670Z,94.40
2023-02-13T13:59:01.108Z,95.20
2023-02-13T14:01:46.899Z,95.70
2023-02-13T14:04:43.519Z,96.50
2023-02-13T14:07:35.683Z,97.20
2023-02-13T14:11:03.384Z,97.80
2023-02-13T14:13:50.496Z,98.00
2023-02-13T14:16:43.730Z,98.50
2023-02-13T14:19:32.718Z,98.80
2023-02-13T14:22:34.243Z,99.10
2023-02-13T14:25:24.761Z,99.00
2023-02-13T14:28:22.206Z,98.80
2023-02-13T14:31:16.911Z,98.90
2023-02-13T14:34:07.458Z,99.60
2023-02-13T14:37:06.972Z,99.70
2023-02-13T14:40:29.058Z,99.80
2023-02-13T14:43:23.536Z,99.90
2023-02-13T14:46:31.802Z,99.90
2023-02-13T14:49:23.206Z,99.90
2023-02-13T14:52:15.904Z,99.90
2023-02-13T14:55:12.884Z,99.90
2023-02-13T14:58:07.205Z,99.90
2023-02-13T15:00:58.269Z,99.90
2023-02-13T15:03:46.898Z,99.90
2023-02-13T15:06:38.732Z,99.90
2023-02-13T15:09:32.947Z,99.90
2023-02-13T15:12:31.065Z,99.90
2023-02-13T15:15:25.107Z,99.90
2023-02-13T15:18:18.191Z,99.90
2023-02-13T15:21:04.046Z,99.90
2023-02-13T15:23:55.459Z,99.90
2023-02-13T15:26:42.219Z,99.90
2023-02-13T15:29:38.052Z,99.90
2023-02-13T15:32:39.364Z,99.90
2023-02-13T15:35:27.519Z,99.90
2023-02-13T15:38:20.728Z,99.90
2023-02-13T15:41:12.302Z,99.90
2023-02-13T15:43:59.736Z,99.90
2023-02-13T15:46:48.325Z,99.90
2023-02-13T15:49:38.788Z,99.90
2023-02-13T15:52:30.645Z,99.90
2023-02-13T15:55:23.368Z,99.90
2023-02-13T15:58:14.127Z,99.90
2023-02-13T16:01:04.057Z,99.90
2023-02-13T16:03:53.666Z,99.90
2023-02-13T16:06:41.950Z,99.90
2023-02-13T16:09:31.831Z,99.90
2023-02-13T16:12:22.776Z,99.90
2023-02-13T16:15:18.526Z,99.90
2023-02-13T16:18:06.336Z,99.90
2023-02-13T16:20:54.848Z,99.90
2023-02-13T16:23:40.675Z,99.90
2023-02-13T16:26:27.073Z,99.90
2023-02-13T16:29:19.583Z,99.90
2023-02-13T16:32:20.651Z,99.90
2023-02-13T16:35:30.710Z,99.90
2023-02-13T16:38:34.625Z,99.90
2023-02-13T16:41:32.354Z,99.90
2023-02-13T16:44:30.253Z,99.90
2023-02-13T16:47:23.614Z,99.90
2023-02-13T16:50:16.221Z,99.90
2023-02-13T16:53:03.230Z,99.90
2023-02-13T16:55:57.779Z,99.90
2023-02-13T16:58:43.660Z,99.90
2023-02-13T17:01:29.148Z,99.90
2023-02-13T17:04:25.076Z,99.90
2023-02-13T17:07:17.549Z,99.90
2023-02-13T17:10:07.145Z,99.90
2023-02-13T17:12:54.196Z,99.90
2023-02-13T17:15:43.033Z,99.90
2023-02-13T17:18:28.947Z,99.90
2023-02-13T17:21:16.549Z,99.90
2023-02-13T17:24:03.400Z,99.90
2023-02-13T17:26:48.824Z,99.90
2023-02-13T17:29:34.368Z,99.90
2023-02-13T17:32:23.805Z,99.90
2023-02-13T17:35:11.531Z,99.90
2023-02-13T17:37:59.331Z,99.90
2023-02-13T17:40:45.474Z,99.90
2023-02-13T17:43:31.808Z,99.90
2023-02-13T17:46:18.027Z,99.90
2023-02-13T17:49:04.528Z,99.90
2023-02-13T17:51:50.197Z,99.90
2023-02-13T17:54:38.166Z,99.90
2023-02-13T17:57:23.963Z,99.90
2023-02-13T18:00:10.573Z,99.90
2023-02-13T18:03:00.800Z,99.90
2023-02-13T18:05:48.460Z,99.90
2023-02-13T18:08:34.006Z,99.90
2023-02-13T18:11:21.358Z,99.90
2023-02-13T18:14:07.335Z,99.90
2023-02-13T18:16:53.465Z,99.90
2023-02-13T18:19:39.634Z,99.90
2023-02-13T18:22:25.433Z,99.90
2023-02-13T18:25:12.209Z,99.90
2023-02-13T18:27:59.459Z,99.90
2023-02-13T18:30:45.388Z,99.90
2023-02-13T18:33:31.460Z,99.90
2023-02-13T18:36:17.619Z,99.90
2023-02-13T18:39:03.479Z,99.90
2023-02-13T18:41:49.505Z,99.90
2023-02-13T18:44:36.969Z,99.90
2023-02-13T18:47:22.570Z,99.90
2023-02-13T18:50:09.345Z,99.90
2023-02-13T18:52:55.238Z,99.90
2023-02-13T18:55:40.994Z,99.90
2023-02-13T18:58:27.313Z,99.90
2023-02-13T19:01:19.167Z,99.90
2023-02-13T19:04:05.531Z,99.90
2023-02-13T19:06:51.754Z,99.90
2023-02-13T19:09:40.510Z,99.90
2023-02-13T19:12:26.147Z,99.90
2023-02-13T19:15:12.122Z,99.90
2023-02-13T19:17:59.083Z,99.90
2023-02-13T19:20:44.762Z,99.90
2023-02-13T19:23:30.610Z,99.90
2023-02-13T19:26:19.047Z,99.90
2023-02-13T19:29:04.803Z,99.90
2023-02-13T19:31:50.407Z,99.90
2023-02-13T19:34:38.454Z,99.90
2023-02-13T19:37:26.710Z,99.90
2023-02-13T19:40:16.453Z,99.90
2023-02-13T19:43:02.480Z,99.90
2023-02-13T19:45:48.741Z,99.90
2023-02-13T19:48:34.956Z,99.90
2023-02-13T19:51:24.435Z,99.90
2023-02-13T19:54:11.415Z,99.90
2023-02-13T19:57:00.469Z,99.90
2023-02-13T19:59:46.099Z,99.90
2023-02-13T20:02:31.776Z,99.90
2023-02-13T20:05:20.956Z,99.90
2023-02-13T20:08:08.041Z,99.90
2023-02-13T20:10:53.618Z,99.90
2023-02-13T20:13:43.058Z,99.90
2023-02-13T20:16:33.064Z,99.90
2023-02-13T20:19:19.141Z,99.90
2023-02-13T20:22:04.980Z,99.90
2023-02-13T20:24:52.025Z,99.90
2023-02-13T20:27:42.257Z,99.90
2023-02-13T20:30:28.909Z,99.90
2023-02-13T20:33:14.813Z,99.90
2023-02-13T20:36:07.274Z,99.90
2023-02-13T20:38:55.864Z,99.90
2023-02-13T20:41:48.743Z,99.90
2023-02-13T20:44:34.699Z,99.90
2023-02-13T20:47:20.662Z,99.90
2023-02-13T20:50:09.873Z,99.90
2023-02-13T20:52:59.504Z,99.90
2023-02-13T20:55:51.436Z,99.90
2023-02-13T20:58:40.779Z,99.90
2023-02-13T21:01:28.540Z,99.90
2023-02-13T21:04:19.110Z,99.90
2023-02-13T21:07:09.522Z,99.90
2023-02-13T21:09:55.434Z,99.90
2023-02-13T21:12:41.058Z,99.90
2023-02-13T21:15:28.737Z,99.90
2023-02-13T21:18:21.325Z,99.90
2023-02-13T21:21:11.498Z,99.90
2023-02-13T21:23:59.672Z,99.90
2023-02-13T21:26:46.724Z,99.90
2023-02-13T21:29:32.960Z,99.90
2023-02-13T21:32:20.318Z,99.90
2023-02-13T21:35:07.662Z,99.90
2023-02-13T21:37:53.524Z,99.90
2023-02-13T21:40:40.753Z,99.90
2023-02-13T21:43:26.365Z,99.90
2023-02-13T21:46:14.948Z,99.90
2023-02-13T21:49:03.728Z,99.90
2023-02-13T21:51:49.601Z,99.90
2023-02-13T21:54:35.349Z,99.90
2023-02-13T21:57:20.932Z,99.90
2023-02-13T22:00:10.302Z,99.90
2023-02-13T22:02:58.194Z,99.90
2023-02-13T22:05:48.354Z,99.90
2023-02-13T22:08:34.094Z,99.90
2023-02-13T22:11:19.646Z,99.90
2023-02-13T22:14:07.750Z,99.90
2023-02-13T22:16:53.768Z,99.90
2023-02-13T22:19:39.678Z,99.90
2023-02-13T22:22:27.635Z,99.90
2023-02-13T22:25:13.456Z,99.90
2023-02-13T22:27:59.073Z,99.90
2023-02-13T22:30:44.658Z,99.90
2023-02-13T22:33:30.721Z,99.90
2023-02-13T22:36:18.121Z,99.90
2023-02-13T22:39:06.114Z,99.90
2023-02-13T22:41:55.124Z,99.90
2023-02-13T22:44:40.939Z,99.90
2023-02-13T22:47:26.479Z,99.90
2023-02-13T22:50:12.251Z,99.90
2023-02-13T22:52:58.404Z,99.90
2023-02-13T22:55:45.329Z,99.90
2023-02-13T22:58:31.302Z,99.90
2023-02-13T23:01:19.065Z,99.90
2023-02-13T23:04:05.051Z,99.90
2023-02-13T23:06:51.021Z,99.90
2023-02-13T23:09:37.151Z,99.90
2023-02-13T23:12:37.194Z,99.90
2023-02-13T23:15:22.833Z,99.90
2023-02-13T23:18:14.352Z,99.90
2023-02-13T23:21:04.552Z,99.90
2023-02-13T23:23:50.307Z,99.90
2023-02-13T23:26:36.462Z,99.90
2023-02-13T23:29:23.914Z,99.90
2023-02-13T23:32:10.152Z,99.90
2023-02-13T23:34:55.899Z,99.90
2023-02-13T23:37:41.455Z,99.90
2023-02-13T23:40:27.292Z,99.90
2023-02-13T23:43:12.943Z,99.90
2023-02-13T23:46:02.314Z,99.90
2023-02-13T23:48:48.163Z,99.90
2023-02-13T23:51:33.892Z,99.90
2023-02-13T23:54:21.344Z,99.90
2023-02-13T23:57:07.463Z,99.90
2023-02-13T23:59:53.570Z,99.90
